sensor_id;sensor_type;location;lat;lon;timestamp;P1;durP1;ratioP1;P2;durP2;ratioP2
10471;SDS011;5283;48.876;8.962;2023-10-08T00:01:15;5.30;;;2.53;;
10471;SDS011;5283;48.876;8.962;2023-10-08T00:03:43;5.10;;;3.03;;
10471;SDS011;5283;48.876;8.962;2023-10-08T00:06:24;3.83;;;2.73;;
10471;SDS011;5283;48.876;8.962;2023-10-08T00:08:52;3.87;;;2.77;;
10471;SDS011;5283;48.876;8.962;2023-10-08T00:11:26;4.13;;;2.83;;
10471;SDS011;5283;48.876;8.962;2023-10-08T00:13:55;3.63;;;2.67;;
10471;SDS011;5283;48.876;8.962;2023-10-08T00:16:22;3.63;;;2.70;;
10471;SDS011;5283;48.876;8.962;2023-10-08T00:18:49;5.17;;;3.43;;
10471;SDS011;5283;48.876;8.962;2023-10-08T00:21:18;5.73;;;3.63;;
10471;SDS011;5283;48.876;8.962;2023-10-08T00:23:46;4.17;;;3.57;;
10471;SDS011;5283;48.876;8.962;2023-10-08T00:26:19;3.57;;;2.67;;
10471;SDS011;5283;48.876;8.962;2023-10-08T00:28:56;3.50;;;2.43;;
10471;SDS011;5283;48.876;8.962;2023-10-08T00:31:32;3.57;;;2.70;;
10471;SDS011;5283;48.876;8.962;2023-10-08T00:34:07;3.20;;;2.63;;
10471;SDS011;5283;48.876;8.962;2023-10-08T00:36:41;3.97;;;2.87;;
10471;SDS011;5283;48.876;8.962;2023-10-08T00:39:09;4.70;;;2.80;;
10471;SDS011;5283;48.876;8.962;2023-10-08T00:41:49;6.10;;;2.77;;
10471;SDS011;5283;48.876;8.962;2023-10-08T00:44:24;5.80;;;3.00;;
10471;SDS011;5283;48.876;8.962;2023-10-08T00:46:56;3.70;;;2.60;;
10471;SDS011;5283;48.876;8.962;2023-10-08T00:49:27;3.10;;;2.43;;
10471;SDS011;5283;48.876;8.962;2023-10-08T00:52:10;3.27;;;2.60;;
10471;SDS011;5283;48.876;8.962;2023-10-08T00:54:39;4.30;;;2.60;;
10471;SDS011;5283;48.876;8.962;2023-10-08T00:57:33;6.83;;;2.77;;
10471;SDS011;5283;48.876;8.962;2023-10-08T01:00:03;7.07;;;2.50;;
10471;SDS011;5283;48.876;8.962;2023-10-08T01:02:32;3.13;;;2.60;;
10471;SDS011;5283;48.876;8.962;2023-10-08T01:05:17;3.40;;;2.70;;
10471;SDS011;5283;48.876;8.962;2023-10-08T01:07:52;3.63;;;2.73;;
10471;SDS011;5283;48.876;8.962;2023-10-08T01:10:21;3.20;;;2.60;;
10471;SDS011;5283;48.876;8.962;2023-10-08T01:12:51;3.97;;;2.50;;
10471;SDS011;5283;48.876;8.962;2023-10-08T01:15:21;3.87;;;2.70;;
10471;SDS011;5283;48.876;8.962;2023-10-08T01:17:55;3.67;;;2.60;;
10471;SDS011;5283;48.876;8.962;2023-10-08T01:20:30;3.40;;;2.30;;
10471;SDS011;5283;48.876;8.962;2023-10-08T01:23:01;3.13;;;2.63;;
10471;SDS011;5283;48.876;8.962;2023-10-08T01:25:30;5.00;;;3.30;;
10471;SDS011;5283;48.876;8.962;2023-10-08T01:27:57;3.17;;;2.37;;
10471;SDS011;5283;48.876;8.962;2023-10-08T01:30:42;3.67;;;2.37;;
10471;SDS011;5283;48.876;8.962;2023-10-08T01:33:15;4.47;;;3.00;;
10471;SDS011;5283;48.876;8.962;2023-10-08T01:35:47;6.33;;;2.97;;
10471;SDS011;5283;48.876;8.962;2023-10-08T01:38:15;3.97;;;2.83;;
10471;SDS011;5283;48.876;8.962;2023-10-08T01:40:49;5.07;;;2.80;;
10471;SDS011;5283;48.876;8.962;2023-10-08T01:43:20;3.90;;;2.70;;
10471;SDS011;5283;48.876;8.962;2023-10-08T01:45:47;4.17;;;2.83;;
10471;SDS011;5283;48.876;8.962;2023-10-08T01:48:18;4.07;;;2.60;;
10471;SDS011;5283;48.876;8.962;2023-10-08T01:50:46;4.43;;;2.73;;
10471;SDS011;5283;48.876;8.962;2023-10-08T01:53:18;3.53;;;2.80;;
10471;SDS011;5283;48.876;8.962;2023-10-08T01:55:46;5.50;;;3.37;;
10471;SDS011;5283;48.876;8.962;2023-10-08T01:58:18;3.90;;;2.70;;
10471;SDS011;5283;48.876;8.962;2023-10-08T02:00:46;4.77;;;3.10;;
10471;SDS011;5283;48.876;8.962;2023-10-08T02:03:14;5.70;;;2.43;;
10471;SDS011;5283;48.876;8.962;2023-10-08T02:05:42;4.60;;;2.47;;
10471;SDS011;5283;48.876;8.962;2023-10-08T02:08:10;2.90;;;2.50;;
10471;SDS011;5283;48.876;8.962;2023-10-08T02:10:39;5.73;;;2.60;;
10471;SDS011;5283;48.876;8.962;2023-10-08T02:13:07;3.83;;;2.80;;
10471;SDS011;5283;48.876;8.962;2023-10-08T02:15:40;3.87;;;2.87;;
10471;SDS011;5283;48.876;8.962;2023-10-08T02:18:09;5.93;;;2.70;;
10471;SDS011;5283;48.876;8.962;2023-10-08T02:20:36;3.90;;;2.60;;
10471;SDS011;5283;48.876;8.962;2023-10-08T02:23:05;4.17;;;2.50;;
10471;SDS011;5283;48.876;8.962;2023-10-08T02:25:32;4.50;;;2.87;;
10471;SDS011;5283;48.876;8.962;2023-10-08T02:28:02;4.50;;;2.47;;
10471;SDS011;5283;48.876;8.962;2023-10-08T02:30:29;6.10;;;2.63;;
10471;SDS011;5283;48.876;8.962;2023-10-08T02:32:56;3.80;;;2.70;;
10471;SDS011;5283;48.876;8.962;2023-10-08T02:35:24;3.57;;;2.73;;
10471;SDS011;5283;48.876;8.962;2023-10-08T02:37:52;4.43;;;3.20;;
10471;SDS011;5283;48.876;8.962;2023-10-08T02:40:21;2.93;;;2.43;;
10471;SDS011;5283;48.876;8.962;2023-10-08T02:42:54;3.93;;;2.80;;
10471;SDS011;5283;48.876;8.962;2023-10-08T02:45:25;4.83;;;2.93;;
10471;SDS011;5283;48.876;8.962;2023-10-08T02:47:52;4.20;;;2.70;;
10471;SDS011;5283;48.876;8.962;2023-10-08T02:50:23;5.50;;;2.50;;
10471;SDS011;5283;48.876;8.962;2023-10-08T02:52:50;4.23;;;2.53;;
10471;SDS011;5283;48.876;8.962;2023-10-08T02:55:17;5.33;;;2.80;;
10471;SDS011;5283;48.876;8.962;2023-10-08T02:57:54;3.90;;;2.63;;
10471;SDS011;5283;48.876;8.962;2023-10-08T03:00:22;5.17;;;2.57;;
10471;SDS011;5283;48.876;8.962;2023-10-08T03:02:58;4.90;;;3.00;;
10471;SDS011;5283;48.876;8.962;2023-10-08T03:05:28;3.60;;;2.70;;
10471;SDS011;5283;48.876;8.962;2023-10-08T03:08:02;5.40;;;3.07;;
10471;SDS011;5283;48.876;8.962;2023-10-08T03:10:37;3.63;;;2.83;;
10471;SDS011;5283;48.876;8.962;2023-10-08T03:13:04;3.90;;;2.70;;
10471;SDS011;5283;48.876;8.962;2023-10-08T03:15:32;5.17;;;2.50;;
10471;SDS011;5283;48.876;8.962;2023-10-08T03:18:25;4.90;;;2.60;;
10471;SDS011;5283;48.876;8.962;2023-10-08T03:20:52;4.10;;;2.93;;
10471;SDS011;5283;48.876;8.962;2023-10-08T03:23:19;3.40;;;2.53;;
10471;SDS011;5283;48.876;8.962;2023-10-08T03:26:02;3.93;;;2.40;;
10471;SDS011;5283;48.876;8.962;2023-10-08T03:29:02;4.30;;;2.63;;
10471;SDS011;5283;48.876;8.962;2023-10-08T03:31:35;4.23;;;2.40;;
10471;SDS011;5283;48.876;8.962;2023-10-08T03:34:16;4.30;;;2.60;;
10471;SDS011;5283;48.876;8.962;2023-10-08T03:36:46;6.63;;;2.90;;
10471;SDS011;5283;48.876;8.962;2023-10-08T03:39:15;4.77;;;2.73;;
10471;SDS011;5283;48.876;8.962;2023-10-08T03:41:45;4.73;;;2.80;;
10471;SDS011;5283;48.876;8.962;2023-10-08T03:44:32;4.50;;;2.50;;
10471;SDS011;5283;48.876;8.962;2023-10-08T03:46:58;6.37;;;2.80;;
10471;SDS011;5283;48.876;8.962;2023-10-08T03:49:25;3.70;;;2.30;;
10471;SDS011;5283;48.876;8.962;2023-10-08T03:51:53;3.73;;;2.67;;
10471;SDS011;5283;48.876;8.962;2023-10-08T03:54:23;4.60;;;2.53;;
10471;SDS011;5283;48.876;8.962;2023-10-08T03:56:56;4.33;;;3.20;;
10471;SDS011;5283;48.876;8.962;2023-10-08T03:59:24;3.70;;;2.50;;
10471;SDS011;5283;48.876;8.962;2023-10-08T04:01:58;3.90;;;2.80;;
10471;SDS011;5283;48.876;8.962;2023-10-08T04:04:34;3.53;;;2.57;;
10471;SDS011;5283;48.876;8.962;2023-10-08T04:07:23;4.53;;;2.90;;
10471;SDS011;5283;48.876;8.962;2023-10-08T04:09:55;3.87;;;2.80;;
10471;SDS011;5283;48.876;8.962;2023-10-08T04:12:46;4.40;;;2.83;;
10471;SDS011;5283;48.876;8.962;2023-10-08T04:15:17;5.07;;;2.90;;
10471;SDS011;5283;48.876;8.962;2023-10-08T04:17:45;5.47;;;3.23;;
10471;SDS011;5283;48.876;8.962;2023-10-08T04:20:17;3.33;;;2.70;;
10471;SDS011;5283;48.876;8.962;2023-10-08T04:23:04;5.10;;;2.70;;
10471;SDS011;5283;48.876;8.962;2023-10-08T04:25:39;3.30;;;2.50;;
10471;SDS011;5283;48.876;8.962;2023-10-08T04:28:09;2.80;;;2.30;;
10471;SDS011;5283;48.876;8.962;2023-10-08T04:30:41;6.87;;;2.53;;
10471;SDS011;5283;48.876;8.962;2023-10-08T04:33:08;5.63;;;2.97;;
10471;SDS011;5283;48.876;8.962;2023-10-08T04:35:40;3.97;;;2.47;;
10471;SDS011;5283;48.876;8.962;2023-10-08T04:38:28;5.70;;;2.53;;
10471;SDS011;5283;48.876;8.962;2023-10-08T04:40:55;3.97;;;2.50;;
10471;SDS011;5283;48.876;8.962;2023-10-08T04:43:27;4.80;;;2.80;;
10471;SDS011;5283;48.876;8.962;2023-10-08T04:45:57;3.50;;;2.90;;
10471;SDS011;5283;48.876;8.962;2023-10-08T04:48:25;3.97;;;2.80;;
10471;SDS011;5283;48.876;8.962;2023-10-08T04:50:55;3.87;;;2.43;;
10471;SDS011;5283;48.876;8.962;2023-10-08T04:53:29;4.50;;;2.33;;
10471;SDS011;5283;48.876;8.962;2023-10-08T04:56:02;4.03;;;2.63;;
10471;SDS011;5283;48.876;8.962;2023-10-08T04:58:35;3.93;;;2.67;;
10471;SDS011;5283;48.876;8.962;2023-10-08T05:01:03;5.00;;;2.80;;
10471;SDS011;5283;48.876;8.962;2023-10-08T05:03:52;4.07;;;2.40;;
10471;SDS011;5283;48.876;8.962;2023-10-08T05:09:07;4.83;;;2.60;;
10471;SDS011;5283;48.876;8.962;2023-10-08T05:11:51;4.63;;;3.10;;
10471;SDS011;5283;48.876;8.962;2023-10-08T05:14:22;6.03;;;3.40;;
10471;SDS011;5283;48.876;8.962;2023-10-08T05:17:00;4.47;;;2.57;;
10471;SDS011;5283;48.876;8.962;2023-10-08T05:19:48;4.40;;;2.90;;
10471;SDS011;5283;48.876;8.962;2023-10-08T05:22:27;3.43;;;2.60;;
10471;SDS011;5283;48.876;8.962;2023-10-08T05:24:54;4.73;;;2.70;;
10471;SDS011;5283;48.876;8.962;2023-10-08T05:27:35;4.93;;;3.00;;
10471;SDS011;5283;48.876;8.962;2023-10-08T05:30:04;3.30;;;2.70;;
10471;SDS011;5283;48.876;8.962;2023-10-08T05:32:42;4.10;;;2.50;;
10471;SDS011;5283;48.876;8.962;2023-10-08T05:35:36;3.57;;;2.60;;
10471;SDS011;5283;48.876;8.962;2023-10-08T05:38:09;3.40;;;2.50;;
10471;SDS011;5283;48.876;8.962;2023-10-08T05:40:42;5.37;;;2.93;;
10471;SDS011;5283;48.876;8.962;2023-10-08T05:43:34;4.77;;;2.50;;
10471;SDS011;5283;48.876;8.962;2023-10-08T05:46:06;4.03;;;2.73;;
10471;SDS011;5283;48.876;8.962;2023-10-08T05:48:54;4.50;;;2.77;;
10471;SDS011;5283;48.876;8.962;2023-10-08T05:51:32;5.13;;;2.93;;
10471;SDS011;5283;48.876;8.962;2023-10-08T05:54:16;3.80;;;2.53;;
10471;SDS011;5283;48.876;8.962;2023-10-08T05:56:53;5.30;;;2.83;;
10471;SDS011;5283;48.876;8.962;2023-10-08T05:59:41;3.30;;;2.53;;
10471;SDS011;5283;48.876;8.962;2023-10-08T06:02:28;4.57;;;2.67;;
10471;SDS011;5283;48.876;8.962;2023-10-08T06:05:00;4.50;;;2.70;;
10471;SDS011;5283;48.876;8.962;2023-10-08T06:07:47;6.40;;;2.93;;
10471;SDS011;5283;48.876;8.962;2023-10-08T06:12:59;3.97;;;2.67;;
10471;SDS011;5283;48.876;8.962;2023-10-08T06:15:35;4.87;;;2.73;;
10471;SDS011;5283;48.876;8.962;2023-10-08T06:18:26;4.13;;;2.63;;
10471;SDS011;5283;48.876;8.962;2023-10-08T06:20:55;5.10;;;3.00;;
10471;SDS011;5283;48.876;8.962;2023-10-08T06:23:25;5.13;;;2.50;;
10471;SDS011;5283;48.876;8.962;2023-10-08T06:25:54;4.60;;;3.00;;
10471;SDS011;5283;48.876;8.962;2023-10-08T06:28:26;4.83;;;2.90;;
10471;SDS011;5283;48.876;8.962;2023-10-08T06:30:53;4.03;;;2.50;;
10471;SDS011;5283;48.876;8.962;2023-10-08T06:33:22;3.50;;;2.47;;
10471;SDS011;5283;48.876;8.962;2023-10-08T06:35:51;3.23;;;2.47;;
10471;SDS011;5283;48.876;8.962;2023-10-08T06:38:29;4.03;;;2.67;;
10471;SDS011;5283;48.876;8.962;2023-10-08T06:41:07;5.03;;;2.60;;
10471;SDS011;5283;48.876;8.962;2023-10-08T06:43:41;3.63;;;2.40;;
10471;SDS011;5283;48.876;8.962;2023-10-08T06:46:13;3.67;;;2.57;;
10471;SDS011;5283;48.876;8.962;2023-10-08T06:48:40;4.07;;;2.90;;
10471;SDS011;5283;48.876;8.962;2023-10-08T06:51:09;5.33;;;2.90;;
10471;SDS011;5283;48.876;8.962;2023-10-08T06:53:45;4.30;;;2.50;;
10471;SDS011;5283;48.876;8.962;2023-10-08T06:56:13;5.67;;;2.43;;
10471;SDS011;5283;48.876;8.962;2023-10-08T06:58:41;3.50;;;2.60;;
10471;SDS011;5283;48.876;8.962;2023-10-08T07:01:15;5.23;;;2.63;;
10471;SDS011;5283;48.876;8.962;2023-10-08T07:03:48;3.53;;;2.40;;
10471;SDS011;5283;48.876;8.962;2023-10-08T07:06:18;4.07;;;2.90;;
10471;SDS011;5283;48.876;8.962;2023-10-08T07:08:58;3.77;;;2.70;;
10471;SDS011;5283;48.876;8.962;2023-10-08T07:11:32;4.30;;;2.50;;
10471;SDS011;5283;48.876;8.962;2023-10-08T07:14:05;4.17;;;2.47;;
10471;SDS011;5283;48.876;8.962;2023-10-08T07:16:32;3.00;;;2.20;;
10471;SDS011;5283;48.876;8.962;2023-10-08T07:18:59;3.90;;;2.23;;
10471;SDS011;5283;48.876;8.962;2023-10-08T07:21:31;6.00;;;2.80;;
10471;SDS011;5283;48.876;8.962;2023-10-08T07:24:13;3.43;;;2.37;;
10471;SDS011;5283;48.876;8.962;2023-10-08T07:26:45;4.60;;;2.90;;
10471;SDS011;5283;48.876;8.962;2023-10-08T07:29:13;4.73;;;2.90;;
10471;SDS011;5283;48.876;8.962;2023-10-08T07:31:43;3.13;;;2.43;;
10471;SDS011;5283;48.876;8.962;2023-10-08T07:34:19;2.90;;;2.30;;
10471;SDS011;5283;48.876;8.962;2023-10-08T07:36:52;2.50;;;2.30;;
10471;SDS011;5283;48.876;8.962;2023-10-08T07:39:21;3.47;;;2.50;;
10471;SDS011;5283;48.876;8.962;2023-10-08T07:41:49;3.47;;;2.50;;
10471;SDS011;5283;48.876;8.962;2023-10-08T07:44:16;5.80;;;2.70;;
10471;SDS011;5283;48.876;8.962;2023-10-08T07:46:50;4.07;;;2.60;;
10471;SDS011;5283;48.876;8.962;2023-10-08T07:49:20;4.70;;;3.07;;
10471;SDS011;5283;48.876;8.962;2023-10-08T07:51:49;5.33;;;3.00;;
10471;SDS011;5283;48.876;8.962;2023-10-08T07:54:23;3.57;;;2.70;;
10471;SDS011;5283;48.876;8.962;2023-10-08T07:56:50;4.63;;;2.90;;
10471;SDS011;5283;48.876;8.962;2023-10-08T07:59:18;3.43;;;2.80;;
10471;SDS011;5283;48.876;8.962;2023-10-08T08:01:44;4.00;;;2.40;;
10471;SDS011;5283;48.876;8.962;2023-10-08T08:04:11;3.17;;;2.50;;
10471;SDS011;5283;48.876;8.962;2023-10-08T08:06:48;3.13;;;2.83;;
10471;SDS011;5283;48.876;8.962;2023-10-08T08:09:19;4.67;;;3.10;;
10471;SDS011;5283;48.876;8.962;2023-10-08T08:11:46;5.00;;;2.93;;
10471;SDS011;5283;48.876;8.962;2023-10-08T08:14:16;3.47;;;2.60;;
10471;SDS011;5283;48.876;8.962;2023-10-08T08:16:43;5.50;;;3.20;;
10471;SDS011;5283;48.876;8.962;2023-10-08T08:19:15;5.43;;;3.17;;
10471;SDS011;5283;48.876;8.962;2023-10-08T08:21:45;3.00;;;2.50;;
10471;SDS011;5283;48.876;8.962;2023-10-08T08:24:12;5.00;;;3.20;;
10471;SDS011;5283;48.876;8.962;2023-10-08T08:26:39;6.40;;;3.27;;
10471;SDS011;5283;48.876;8.962;2023-10-08T08:29:10;4.17;;;3.03;;
10471;SDS011;5283;48.876;8.962;2023-10-08T08:31:41;4.73;;;3.13;;
10471;SDS011;5283;48.876;8.962;2023-10-08T08:34:12;4.60;;;2.97;;
10471;SDS011;5283;48.876;8.962;2023-10-08T08:36:46;6.43;;;3.20;;
10471;SDS011;5283;48.876;8.962;2023-10-08T08:39:15;3.63;;;2.73;;
10471;SDS011;5283;48.876;8.962;2023-10-08T08:41:56;4.77;;;2.80;;
10471;SDS011;5283;48.876;8.962;2023-10-08T08:44:30;4.60;;;2.80;;
10471;SDS011;5283;48.876;8.962;2023-10-08T08:47:00;6.17;;;3.03;;
10471;SDS011;5283;48.876;8.962;2023-10-08T08:49:32;3.80;;;3.40;;
10471;SDS011;5283;48.876;8.962;2023-10-08T08:52:01;7.43;;;2.77;;
10471;SDS011;5283;48.876;8.962;2023-10-08T08:54:27;5.00;;;2.87;;
10471;SDS011;5283;48.876;8.962;2023-10-08T08:56:57;6.60;;;3.00;;
10471;SDS011;5283;48.876;8.962;2023-10-08T08:59:30;5.03;;;3.10;;
10471;SDS011;5283;48.876;8.962;2023-10-08T09:02:00;4.50;;;3.10;;
10471;SDS011;5283;48.876;8.962;2023-10-08T09:04:30;6.00;;;4.80;;
10471;SDS011;5283;48.876;8.962;2023-10-08T09:06:59;4.53;;;3.60;;
10471;SDS011;5283;48.876;8.962;2023-10-08T09:09:32;4.40;;;3.53;;
10471;SDS011;5283;48.876;8.962;2023-10-08T09:12:05;5.40;;;3.37;;
10471;SDS011;5283;48.876;8.962;2023-10-08T09:14:36;3.23;;;2.60;;
10471;SDS011;5283;48.876;8.962;2023-10-08T09:17:04;3.27;;;2.57;;
10471;SDS011;5283;48.876;8.962;2023-10-08T09:19:37;3.33;;;2.73;;
10471;SDS011;5283;48.876;8.962;2023-10-08T09:22:09;4.20;;;2.87;;
10471;SDS011;5283;48.876;8.962;2023-10-08T09:24:38;3.50;;;2.70;;
10471;SDS011;5283;48.876;8.962;2023-10-08T09:27:06;3.27;;;2.73;;
10471;SDS011;5283;48.876;8.962;2023-10-08T09:29:34;3.00;;;2.50;;
10471;SDS011;5283;48.876;8.962;2023-10-08T09:32:09;5.03;;;3.20;;
10471;SDS011;5283;48.876;8.962;2023-10-08T09:34:37;3.90;;;2.90;;
10471;SDS011;5283;48.876;8.962;2023-10-08T09:37:04;3.57;;;3.00;;
10471;SDS011;5283;48.876;8.962;2023-10-08T09:39:31;3.43;;;3.03;;
10471;SDS011;5283;48.876;8.962;2023-10-08T09:42:01;4.40;;;3.33;;
10471;SDS011;5283;48.876;8.962;2023-10-08T09:44:31;3.77;;;3.00;;
10471;SDS011;5283;48.876;8.962;2023-10-08T09:49:40;5.03;;;3.00;;
10471;SDS011;5283;48.876;8.962;2023-10-08T09:52:11;5.87;;;3.30;;
10471;SDS011;5283;48.876;8.962;2023-10-08T09:54:45;4.80;;;3.30;;
10471;SDS011;5283;48.876;8.962;2023-10-08T09:57:17;4.93;;;3.30;;
10471;SDS011;5283;48.876;8.962;2023-10-08T09:59:45;4.40;;;3.40;;
10471;SDS011;5283;48.876;8.962;2023-10-08T10:02:16;4.40;;;2.80;;
10471;SDS011;5283;48.876;8.962;2023-10-08T10:04:44;7.43;;;3.20;;
10471;SDS011;5283;48.876;8.962;2023-10-08T10:07:11;4.60;;;3.40;;
10471;SDS011;5283;48.876;8.962;2023-10-08T10:09:44;5.47;;;3.27;;
10471;SDS011;5283;48.876;8.962;2023-10-08T10:12:17;5.23;;;3.17;;
10471;SDS011;5283;48.876;8.962;2023-10-08T10:14:45;5.23;;;3.30;;
10471;SDS011;5283;48.876;8.962;2023-10-08T10:17:15;5.67;;;3.37;;
10471;SDS011;5283;48.876;8.962;2023-10-08T10:19:56;6.07;;;3.47;;
10471;SDS011;5283;48.876;8.962;2023-10-08T10:22:30;4.90;;;3.27;;
10471;SDS011;5283;48.876;8.962;2023-10-08T10:25:01;4.13;;;3.23;;
10471;SDS011;5283;48.876;8.962;2023-10-08T10:27:41;4.90;;;3.20;;
10471;SDS011;5283;48.876;8.962;2023-10-08T10:30:08;5.73;;;3.20;;
10471;SDS011;5283;48.876;8.962;2023-10-08T10:32:36;4.90;;;3.43;;
10471;SDS011;5283;48.876;8.962;2023-10-08T10:35:03;7.10;;;3.50;;
10471;SDS011;5283;48.876;8.962;2023-10-08T10:37:37;5.30;;;3.00;;
10471;SDS011;5283;48.876;8.962;2023-10-08T10:40:08;4.67;;;3.07;;
10471;SDS011;5283;48.876;8.962;2023-10-08T10:42:39;4.20;;;3.03;;
10471;SDS011;5283;48.876;8.962;2023-10-08T10:45:13;6.33;;;3.97;;
10471;SDS011;5283;48.876;8.962;2023-10-08T10:48:02;4.23;;;3.03;;
10471;SDS011;5283;48.876;8.962;2023-10-08T10:50:51;6.37;;;3.20;;
10471;SDS011;5283;48.876;8.962;2023-10-08T10:53:37;3.37;;;3.07;;
10471;SDS011;5283;48.876;8.962;2023-10-08T10:56:11;3.70;;;3.17;;
10471;SDS011;5283;48.876;8.962;2023-10-08T10:58:47;6.87;;;3.40;;
10471;SDS011;5283;48.876;8.962;2023-10-08T11:01:25;4.50;;;3.13;;
10471;SDS011;5283;48.876;8.962;2023-10-08T11:03:56;6.83;;;3.50;;
10471;SDS011;5283;48.876;8.962;2023-10-08T11:06:26;5.50;;;3.63;;
10471;SDS011;5283;48.876;8.962;2023-10-08T11:08:53;6.33;;;3.50;;
10471;SDS011;5283;48.876;8.962;2023-10-08T11:11:26;6.53;;;3.23;;
10471;SDS011;5283;48.876;8.962;2023-10-08T11:14:00;4.73;;;3.53;;
10471;SDS011;5283;48.876;8.962;2023-10-08T11:16:27;5.43;;;3.27;;
10471;SDS011;5283;48.876;8.962;2023-10-08T11:18:57;5.40;;;3.43;;
10471;SDS011;5283;48.876;8.962;2023-10-08T11:21:27;6.03;;;3.40;;
10471;SDS011;5283;48.876;8.962;2023-10-08T11:24:00;6.30;;;3.27;;
10471;SDS011;5283;48.876;8.962;2023-10-08T11:26:35;5.27;;;3.07;;
10471;SDS011;5283;48.876;8.962;2023-10-08T11:29:05;7.50;;;3.63;;
10471;SDS011;5283;48.876;8.962;2023-10-08T11:31:40;7.43;;;3.40;;
10471;SDS011;5283;48.876;8.962;2023-10-08T11:34:10;5.37;;;3.50;;
10471;SDS011;5283;48.876;8.962;2023-10-08T11:36:39;11.80;;;3.43;;
10471;SDS011;5283;48.876;8.962;2023-10-08T11:39:15;6.10;;;3.93;;
10471;SDS011;5283;48.876;8.962;2023-10-08T11:41:58;5.70;;;3.97;;
10471;SDS011;5283;48.876;8.962;2023-10-08T11:44:30;6.03;;;4.10;;
10471;SDS011;5283;48.876;8.962;2023-10-08T11:47:05;7.83;;;3.63;;
10471;SDS011;5283;48.876;8.962;2023-10-08T11:49:38;8.23;;;3.90;;
10471;SDS011;5283;48.876;8.962;2023-10-08T11:52:13;4.63;;;3.47;;
10471;SDS011;5283;48.876;8.962;2023-10-08T11:54:44;8.53;;;3.60;;
10471;SDS011;5283;48.876;8.962;2023-10-08T11:57:14;7.30;;;3.90;;
10471;SDS011;5283;48.876;8.962;2023-10-08T11:59:48;9.83;;;4.10;;
10471;SDS011;5283;48.876;8.962;2023-10-08T12:02:14;6.33;;;3.60;;
10471;SDS011;5283;48.876;8.962;2023-10-08T12:04:43;6.93;;;3.60;;
10471;SDS011;5283;48.876;8.962;2023-10-08T12:07:13;7.60;;;4.10;;
10471;SDS011;5283;48.876;8.962;2023-10-08T12:09:43;7.03;;;3.60;;
10471;SDS011;5283;48.876;8.962;2023-10-08T12:12:14;7.57;;;3.70;;
10471;SDS011;5283;48.876;8.962;2023-10-08T12:14:41;6.40;;;3.90;;
10471;SDS011;5283;48.876;8.962;2023-10-08T12:17:11;7.33;;;3.63;;
10471;SDS011;5283;48.876;8.962;2023-10-08T12:19:38;7.27;;;3.43;;
10471;SDS011;5283;48.876;8.962;2023-10-08T12:22:09;9.20;;;4.23;;
10471;SDS011;5283;48.876;8.962;2023-10-08T12:24:40;6.50;;;3.87;;
10471;SDS011;5283;48.876;8.962;2023-10-08T12:27:08;7.53;;;3.87;;
10471;SDS011;5283;48.876;8.962;2023-10-08T12:29:37;8.90;;;3.73;;
10471;SDS011;5283;48.876;8.962;2023-10-08T12:32:04;6.57;;;3.90;;
10471;SDS011;5283;48.876;8.962;2023-10-08T12:34:35;5.33;;;3.67;;
10471;SDS011;5283;48.876;8.962;2023-10-08T12:37:02;9.07;;;4.30;;
10471;SDS011;5283;48.876;8.962;2023-10-08T12:39:28;7.00;;;3.70;;
10471;SDS011;5283;48.876;8.962;2023-10-08T12:41:56;7.87;;;3.50;;
10471;SDS011;5283;48.876;8.962;2023-10-08T12:44:31;14.37;;;4.13;;
10471;SDS011;5283;48.876;8.962;2023-10-08T12:46:59;7.90;;;3.97;;
10471;SDS011;5283;48.876;8.962;2023-10-08T12:49:31;6.70;;;3.53;;
10471;SDS011;5283;48.876;8.962;2023-10-08T12:52:00;8.33;;;3.93;;
10471;SDS011;5283;48.876;8.962;2023-10-08T12:54:28;7.90;;;3.60;;
10471;SDS011;5283;48.876;8.962;2023-10-08T12:56:59;7.87;;;3.50;;
10471;SDS011;5283;48.876;8.962;2023-10-08T12:59:26;6.27;;;3.80;;
10471;SDS011;5283;48.876;8.962;2023-10-08T13:01:57;7.47;;;3.53;;
10471;SDS011;5283;48.876;8.962;2023-10-08T13:04:24;9.77;;;3.27;;
10471;SDS011;5283;48.876;8.962;2023-10-08T13:06:54;8.07;;;3.70;;
10471;SDS011;5283;48.876;8.962;2023-10-08T13:09:23;6.60;;;3.33;;
10471;SDS011;5283;48.876;8.962;2023-10-08T13:11:51;9.73;;;3.57;;
10471;SDS011;5283;48.876;8.962;2023-10-08T13:14:18;7.83;;;3.83;;
10471;SDS011;5283;48.876;8.962;2023-10-08T13:16:45;6.63;;;3.30;;
10471;SDS011;5283;48.876;8.962;2023-10-08T13:19:11;6.77;;;3.33;;
10471;SDS011;5283;48.876;8.962;2023-10-08T13:21:38;7.23;;;3.60;;
10471;SDS011;5283;48.876;8.962;2023-10-08T13:24:05;8.83;;;3.67;;
10471;SDS011;5283;48.876;8.962;2023-10-08T13:26:36;8.83;;;3.33;;
10471;SDS011;5283;48.876;8.962;2023-10-08T13:29:04;8.37;;;3.73;;
10471;SDS011;5283;48.876;8.962;2023-10-08T13:31:35;6.93;;;3.87;;
10471;SDS011;5283;48.876;8.962;2023-10-08T13:34:02;8.27;;;3.33;;
10471;SDS011;5283;48.876;8.962;2023-10-08T13:36:35;11.60;;;3.97;;
10471;SDS011;5283;48.876;8.962;2023-10-08T13:39:07;6.20;;;3.30;;
10471;SDS011;5283;48.876;8.962;2023-10-08T13:41:36;8.00;;;3.50;;
10471;SDS011;5283;48.876;8.962;2023-10-08T13:44:07;9.63;;;3.80;;
10471;SDS011;5283;48.876;8.962;2023-10-08T13:46:34;8.80;;;3.93;;
10471;SDS011;5283;48.876;8.962;2023-10-08T13:49:02;8.07;;;3.43;;
10471;SDS011;5283;48.876;8.962;2023-10-08T13:51:32;5.63;;;3.83;;
10471;SDS011;5283;48.876;8.962;2023-10-08T13:54:01;7.50;;;3.43;;
10471;SDS011;5283;48.876;8.962;2023-10-08T13:56:33;6.23;;;3.30;;
10471;SDS011;5283;48.876;8.962;2023-10-08T13:59:00;6.63;;;3.53;;
10471;SDS011;5283;48.876;8.962;2023-10-08T14:01:43;6.37;;;3.30;;
10471;SDS011;5283;48.876;8.962;2023-10-08T14:04:17;8.20;;;3.90;;
10471;SDS011;5283;48.876;8.962;2023-10-08T14:06:52;7.40;;;3.77;;
10471;SDS011;5283;48.876;8.962;2023-10-08T14:09:20;7.57;;;4.03;;
10471;SDS011;5283;48.876;8.962;2023-10-08T14:11:48;9.60;;;3.70;;
10471;SDS011;5283;48.876;8.962;2023-10-08T14:14:19;7.70;;;3.57;;
10471;SDS011;5283;48.876;8.962;2023-10-08T14:16:46;5.73;;;3.50;;
10471;SDS011;5283;48.876;8.962;2023-10-08T14:19:18;5.30;;;2.97;;
10471;SDS011;5283;48.876;8.962;2023-10-08T14:21:49;4.40;;;3.30;;
10471;SDS011;5283;48.876;8.962;2023-10-08T14:24:20;8.47;;;3.20;;
10471;SDS011;5283;48.876;8.962;2023-10-08T14:26:47;9.13;;;3.67;;
10471;SDS011;5283;48.876;8.962;2023-10-08T14:29:23;8.63;;;3.90;;
10471;SDS011;5283;48.876;8.962;2023-10-08T14:31:53;6.67;;;3.50;;
10471;SDS011;5283;48.876;8.962;2023-10-08T14:34:22;7.53;;;3.73;;
10471;SDS011;5283;48.876;8.962;2023-10-08T14:37:07;5.37;;;2.90;;
10471;SDS011;5283;48.876;8.962;2023-10-08T14:39:53;5.97;;;3.20;;
10471;SDS011;5283;48.876;8.962;2023-10-08T14:42:39;5.80;;;3.37;;
10471;SDS011;5283;48.876;8.962;2023-10-08T14:45:25;9.07;;;3.60;;
10471;SDS011;5283;48.876;8.962;2023-10-08T14:47:56;8.23;;;3.67;;
10471;SDS011;5283;48.876;8.962;2023-10-08T14:50:24;6.03;;;2.87;;
10471;SDS011;5283;48.876;8.962;2023-10-08T14:52:57;7.33;;;3.47;;
10471;SDS011;5283;48.876;8.962;2023-10-08T14:55:27;9.30;;;3.60;;
10471;SDS011;5283;48.876;8.962;2023-10-08T14:57:55;6.57;;;3.43;;
10471;SDS011;5283;48.876;8.962;2023-10-08T15:00:22;6.03;;;3.03;;
10471;SDS011;5283;48.876;8.962;2023-10-08T15:02:52;6.17;;;3.37;;
10471;SDS011;5283;48.876;8.962;2023-10-08T15:05:22;6.73;;;3.40;;
10471;SDS011;5283;48.876;8.962;2023-10-08T15:07:49;6.93;;;2.90;;
10471;SDS011;5283;48.876;8.962;2023-10-08T15:10:17;6.00;;;3.17;;
10471;SDS011;5283;48.876;8.962;2023-10-08T15:12:44;6.37;;;3.43;;
10471;SDS011;5283;48.876;8.962;2023-10-08T15:15:11;9.27;;;3.77;;
10471;SDS011;5283;48.876;8.962;2023-10-08T15:17:42;9.80;;;3.20;;
10471;SDS011;5283;48.876;8.962;2023-10-08T15:20:11;6.43;;;3.30;;
10471;SDS011;5283;48.876;8.962;2023-10-08T15:22:43;6.67;;;3.07;;
10471;SDS011;5283;48.876;8.962;2023-10-08T15:25:12;7.87;;;3.30;;
10471;SDS011;5283;48.876;8.962;2023-10-08T15:27:40;8.00;;;3.30;;
10471;SDS011;5283;48.876;8.962;2023-10-08T15:30:08;8.10;;;3.40;;
10471;SDS011;5283;48.876;8.962;2023-10-08T15:32:38;8.20;;;3.40;;
10471;SDS011;5283;48.876;8.962;2023-10-08T15:35:09;6.20;;;3.37;;
10471;SDS011;5283;48.876;8.962;2023-10-08T15:37:40;7.07;;;3.20;;